Boone County 219 — WQMM332 — position and weather

sailwx.info

Track history (hours):
 
Tides and Currents Weather Stations Pressure Air Temp Water Temp Dewpoint Dewpoint Depression Visibility Wind Speed Wind Dir Waves Ship Positions

Boone County 219

Last reported at 2015-Jun-29 03:22 UTC. Time now 2015-Jul-04 06:56 UTC.
Position N 39°04' W 084°36'.

Length 10 m.

Type: SAR. MMSI: 338117796.

Date/timePositionNaut miles runAvg speedWind from/ knotsBaromVisibWave heightAir tempDewpointWater temp
2015-Jun-29 03:22N 39°04' W 084°36'7 9.0
2015-Jun-29 02:33N 39°07' W 084°27'3 2.7
2015-Jun-29 01:33N 39°06' W 084°30'3 2.7
2015-Jun-29 00:33N 39°07' W 084°27'2 1.7
2015-Jun-28 23:30N 39°05' W 084°26'1 1.6
2015-Jun-28 22:33N 39°07' W 084°27'1 1.0
2015-Jun-28 21:33N 39°06' W 084°26'3 2.9
2015-Jun-28 20:33N 39°06' W 084°30'3 3.4
2015-Jun-28 19:32N 39°05' W 084°34'1 0.1
2015-Jun-28 00:07N 39°04' W 084°36'1 2.4
2015-Jun-27 23:32N 39°05' W 084°34'6 5.9
2015-Jun-27 22:33N 39°07' W 084°27'1 0.8
2015-Jun-27 21:33N 39°06' W 084°26'2 2.0
2015-Jun-27 20:31N 39°04' W 084°26'0 0.0
2015-Jun-27 19:05N 39°04' W 084°26'0 0.2
2015-Jun-27 18:32N 39°04' W 084°26'0 0.1
2015-Jun-27 17:32N 39°04' W 084°26'0 0.0
2015-Jun-27 16:32N 39°04' W 084°26'5 4.6
2015-Jun-27 15:33N 39°05' W 084°31'3 0.3
2015-Jun-27 02:28N 39°04' W 084°36'5 5.1
2015-Jun-27 01:31N 39°06' W 084°30'4 3.4
2015-Jun-27 00:29N 39°04' W 084°26'0 0.0
2015-Jun-26 23:31N 39°04' W 084°26'0 0.0
2015-Jun-26 22:33N 39°04' W 084°26'2 2.0
2015-Jun-26 21:29N 39°06' W 084°26'  
2015-Jun-20 20:31N 39°04' W 084°36'0 0.0
2015-Jun-20 19:28N 39°04' W 084°36'0 0.0
2015-Jun-19 23:06N 39°04' W 084°36'  
Track history (hours):
 
Tides and Currents Weather Stations Pressure Air Temp Water Temp Dewpoint Dewpoint Depression Visibility Wind Speed Wind Dir Waves Ship Positions

Boone County 219

Last reported at 2015-Jun-29 03:22 UTC. Time now 2015-Jul-04 06:56 UTC.
Position N 39°04' W 084°36'.

Length 10 m.

Type: SAR. MMSI: 338117796.

Date/timePositionNaut miles runAvg speedWind from/ knotsBaromVisibWave heightAir tempDewpointWater temp
2015-Jun-29 03:22N 39°04' W 084°36'7 9.0
2015-Jun-29 02:33N 39°07' W 084°27'3 2.7
2015-Jun-29 01:33N 39°06' W 084°30'3 2.7
2015-Jun-29 00:33N 39°07' W 084°27'2 1.7
2015-Jun-28 23:30N 39°05' W 084°26'1 1.6
2015-Jun-28 22:33N 39°07' W 084°27'1 1.0
2015-Jun-28 21:33N 39°06' W 084°26'3 2.9
2015-Jun-28 20:33N 39°06' W 084°30'3 3.4
2015-Jun-28 19:32N 39°05' W 084°34'1 0.1
2015-Jun-28 00:07N 39°04' W 084°36'1 2.4
2015-Jun-27 23:32N 39°05' W 084°34'6 5.9
2015-Jun-27 22:33N 39°07' W 084°27'1 0.8
2015-Jun-27 21:33N 39°06' W 084°26'2 2.0
2015-Jun-27 20:31N 39°04' W 084°26'0 0.0
2015-Jun-27 19:05N 39°04' W 084°26'0 0.2
2015-Jun-27 18:32N 39°04' W 084°26'0 0.1
2015-Jun-27 17:32N 39°04' W 084°26'0 0.0
2015-Jun-27 16:32N 39°04' W 084°26'5 4.6
2015-Jun-27 15:33N 39°05' W 084°31'3 0.3
2015-Jun-27 02:28N 39°04' W 084°36'5 5.1
2015-Jun-27 01:31N 39°06' W 084°30'4 3.4
2015-Jun-27 00:29N 39°04' W 084°26'0 0.0
2015-Jun-26 23:31N 39°04' W 084°26'0 0.0
2015-Jun-26 22:33N 39°04' W 084°26'2 2.0
2015-Jun-26 21:29N 39°06' W 084°26'  
2015-Jun-20 20:31N 39°04' W 084°36'0 0.0
2015-Jun-20 19:28N 39°04' W 084°36'0 0.0
2015-Jun-19 23:06N 39°04' W 084°36'  

Dump ship's entire track history